Accueil
METAR-TAF:

METAR-TAF

Aéroports :

Bathurst, Nouveau-Brunswick, Canada

Aéroport de Bathurst

latitude: 47-38N, longitude: 065-45W, altitude: 59 m

Observation

Le bulletin a été fait il y a 17 minutes, à 02:00 UTC
Vent calme
Température -10°C
Humidité 52%
Pression 1037 hPa
Visibilité: 24.1 km
Ciel clair

METAR: CZBF 230200Z 00000KT 15SM SKC M10/M18 A3062 RMK SLP377

Heure: 22:17 (02:17 UTC)

Prévision

Le bulletin a été fait il y a 26 minutes, à 01:51 UTC
Prévision valable du 23 à 02 UTC au 23 à 04 UTC
Vent 3 kt de direction variable
Visibilité: 10 km
Ciel clair

TAF: CZBF 230151Z 2302/2304 VRB03KT P6SM SKC RMK NXT FCST WILL BE ISSUED AT 230945Z

Observations et prévisions météorologiques de plus de 4000 aéroports (messages METAR et TAF).

Les stations disponibles sont représentées par des disques jaunes et rouges sur la carte.

Passer la souris dessus pour voir le nom de la station.

Cliquer dessus pour voir les observations et prévisions météorologiques.

Pour changer de carte: cliquez sur les boutons verts avec une croix noire pour zoomer, sur le bouton vert avec un tiret pour effectuer un zoom arrière, ou sur les flèches vertes pour les cartes adjacentes.


METAR-TAF: